Time;durP1;ratioP1;P1;durP2;ratioP2;P2;SDS_P1;SDS_P2;PMS_P1;PMS_P2;Temp;Humidity;BMP_temperature;BMP_pressure;BME280_temperature;BME280_humidity;BME280_pressure;Samples;Min_cycle;Max_cycle;Signal;HPM_P1;HPM_P2
2021/10/02 00:35:49;;;;;;;6.03;3.50;;;;;;;15.33;57.48;97921.59;8447606;28;20218;-66
2021/10/02 00:48:35;;;;;;;6.97;3.87;;;;;;;15.28;57.62;97913.22;8456194;28;20213;-65
2021/10/02 00:52:39;;;;;;;5.40;3.20;;;;;;;15.26;58.06;97912.47;8456124;28;20308;-65
2021/10/02 00:56:41;;;;;;;5.63;3.70;;;;;;;15.21;58.20;97924.97;8455723;28;20253;-65
2021/10/02 01:00:48;;;;;;;5.33;3.60;;;;;;;15.30;58.04;97913.94;8455597;28;20232;-65
2021/10/02 01:05:03;;;;;;;7.57;3.40;;;;;;;15.24;58.03;97909.97;8455986;28;20205;-65
2021/10/02 01:09:12;;;;;;;4.50;3.43;;;;;;;15.21;58.13;97917.13;8455715;28;20385;-65
2021/10/02 01:13:20;;;;;;;5.77;3.40;;;;;;;15.21;58.41;97920.59;8455376;28;20247;-65
2021/10/02 01:17:29;;;;;;;4.63;3.00;;;;;;;15.23;57.43;97925.69;8455395;28;20481;-65
2021/10/02 01:21:47;;;;;;;3.33;3.00;;;;;;;15.17;57.32;97931.31;8455101;28;20237;-65
2021/10/02 01:26:05;;;;;;;4.77;3.13;;;;;;;15.10;57.32;97928.28;8454961;28;20204;-65
2021/10/02 01:30:16;;;;;;;5.73;3.53;;;;;;;15.10;57.52;97932.63;8454918;28;20209;-65
2021/10/02 01:34:23;;;;;;;6.67;3.17;;;;;;;15.04;57.68;97926.88;8454610;28;20219;-65
2021/10/02 01:47:25;;;;;;;9.43;3.47;;;;;;;14.90;57.29;97933.91;8318792;28;20208;-65
2021/10/02 01:51:28;;;;;;;4.57;3.57;;;;;;;14.95;57.40;97937.06;8380424;28;20202;-65
2021/10/02 01:55:31;;;;;;;6.67;3.20;;;;;;;14.91;57.64;97928.59;8453698;28;20210;-66
2021/10/02 01:59:35;;;;;;;4.80;3.40;;;;;;;14.77;58.51;97929.44;8453719;28;20234;-65
2021/10/02 02:03:41;;;;;;;4.83;3.13;;;;;;;14.67;58.66;97933.56;8453924;28;20210;-65
2021/10/02 02:07:49;;;;;;;6.73;3.60;;;;;;;14.88;57.77;97933.16;8453676;28;20441;-65
2021/10/02 02:11:52;;;;;;;6.37;3.40;;;;;;;14.86;57.98;97933.25;8453642;28;20390;-65
2021/10/02 02:15:58;;;;;;;4.13;3.30;;;;;;;14.90;57.57;97933.91;8453483;28;20205;-65
2021/10/02 02:20:04;;;;;;;7.27;3.20;;;;;;;14.84;57.78;97932.50;8453224;28;20250;-65
2021/10/02 02:24:07;;;;;;;7.27;3.37;;;;;;;14.84;58.22;97925.53;8453225;28;20206;-65
2021/10/02 02:28:10;;;;;;;4.63;3.50;;;;;;;14.82;58.05;97931.78;8452929;28;20209;-66
2021/10/02 02:32:13;;;;;;;6.50;3.30;;;;;;;14.78;58.02;97915.47;8452626;28;20202;-66
2021/10/02 02:36:18;;;;;;;5.23;3.40;;;;;;;14.79;58.21;97917.16;8452727;28;20493;-65
2021/10/02 02:40:21;;;;;;;6.90;3.40;;;;;;;14.79;58.48;97914.56;8452616;28;20230;-65
2021/10/02 02:44:25;;;;;;;7.33;3.40;;;;;;;14.76;58.47;97916.53;8452449;28;20199;-65
2021/10/02 02:48:30;;;;;;;6.80;3.70;;;;;;;14.74;58.92;97928.81;8452389;28;20198;-65
2021/10/02 02:52:42;;;;;;;4.90;3.20;;;;;;;14.77;58.30;97924.22;8452256;28;20385;-65
2021/10/02 02:56:47;;;;;;;4.40;3.20;;;;;;;14.76;58.35;97922.56;8451971;28;20234;-66
2021/10/02 03:00:55;;;;;;;5.33;3.30;;;;;;;14.85;58.19;97924.59;8451997;28;20225;-66
2021/10/02 03:05:00;;;;;;;6.07;3.03;;;;;;;14.83;58.31;97913.44;8451529;28;20357;-65
2021/10/02 03:09:05;;;;;;;5.33;3.20;;;;;;;14.82;58.57;97924.78;8451721;28;20202;-65
2021/10/02 03:13:11;;;;;;;4.40;3.13;;;;;;;14.82;58.75;97926.56;8451585;28;20198;-65
2021/10/02 03:17:15;;;;;;;4.37;3.17;;;;;;;14.83;58.72;97925.59;8451663;28;20205;-65
2021/10/02 03:21:20;;;;;;;4.10;2.93;;;;;;;14.64;59.09;97921.56;8451302;28;20252;-66
2021/10/02 03:25:26;;;;;;;5.57;3.13;;;;;;;14.58;59.13;97923.69;8451373;28;20217;-65
2021/10/02 03:29:30;;;;;;;4.53;3.40;;;;;;;14.65;59.14;97931.03;8451289;28;20203;-65
2021/10/02 03:33:33;;;;;;;4.70;3.20;;;;;;;14.68;59.52;97930.03;8450903;28;20241;-65
2021/10/02 03:37:36;;;;;;;4.23;2.90;;;;;;;14.70;59.18;97916.88;8450981;28;20214;-65
2021/10/02 03:41:41;;;;;;;5.13;3.13;;;;;;;14.56;59.99;97910.72;8450599;28;20440;-65
2021/10/02 03:45:43;;;;;;;4.80;3.33;;;;;;;14.70;59.52;97909.06;8450430;28;20206;-65
2021/10/02 03:49:47;;;;;;;3.47;2.90;;;;;;;14.74;59.75;97908.78;8450460;28;20502;-65
2021/10/02 03:53:50;;;;;;;7.03;3.13;;;;;;;14.78;59.47;97915.47;8450391;28;20204;-66
2021/10/02 03:57:55;;;;;;;5.13;3.00;;;;;;;14.77;59.95;97908.56;8449888;28;20241;-65
2021/10/02 04:01:57;;;;;;;4.20;3.17;;;;;;;14.78;59.83;97915.47;8449859;28;20226;-66
2021/10/02 04:06:01;;;;;;;5.43;3.50;;;;;;;14.82;59.68;97908.31;8450009;28;20202;-66
2021/10/02 04:10:05;;;;;;;6.10;3.67;;;;;;;14.74;60.22;97907.97;8449946;28;20229;-66
2021/10/02 04:14:09;;;;;;;4.97;3.40;;;;;;;14.71;60.27;97903.75;8449588;28;20210;-65
2021/10/02 04:18:12;;;;;;;3.80;3.10;;;;;;;14.78;60.16;97896.41;8449340;28;20210;-65
2021/10/02 04:22:15;;;;;;;5.10;3.43;;;;;;;14.73;60.34;97891.47;8449378;28;20229;-65
2021/10/02 04:26:18;;;;;;;6.07;3.50;;;;;;;14.47;61.40;97890.47;8449740;28;20198;-66
2021/10/02 04:30:22;;;;;;;4.30;3.40;;;;;;;14.63;60.79;97898.19;8449549;28;20202;-66
2021/10/02 04:34:25;;;;;;;4.23;3.40;;;;;;;14.41;62.55;97891.66;8449366;28;20411;-65
2021/10/02 04:38:28;;;;;;;4.43;3.70;;;;;;;14.67;61.20;97899.66;8449394;28;20198;-65
2021/10/02 04:42:31;;;;;;;4.20;3.80;;;;;;;14.73;61.20;97895.84;8449260;28;20229;-65
2021/10/02 04:46:36;;;;;;;5.90;3.40;;;;;;;14.64;61.61;97892.88;8449265;28;20205;-65
2021/10/02 04:50:39;;;;;;;5.33;3.57;;;;;;;14.53;62.05;97903.09;8449265;28;20496;-65
2021/10/02 04:54:45;;;;;;;7.40;3.90;;;;;;;14.45;62.26;97903.56;8448942;28;20203;-65
2021/10/02 04:58:48;;;;;;;6.07;3.90;;;;;;;14.53;62.08;97905.72;8448773;28;20225;-65
2021/10/02 05:02:52;;;;;;;5.70;4.50;;;;;;;14.64;61.74;97899.84;8448508;28;20225;-66
2021/10/02 05:06:55;;;;;;;7.80;4.70;;;;;;;14.55;62.44;97921.25;8447561;28;20486;-65
2021/10/02 05:10:58;;;;;;;4.77;3.50;;;;;;;14.78;61.25;97922.47;8447493;28;20202;-65
2021/10/02 05:15:02;;;;;;;4.30;3.90;;;;;;;14.72;62.01;97925.47;8447955;28;20390;-65
2021/10/02 05:19:07;;;;;;;7.33;3.97;;;;;;;14.86;61.72;97930.66;8447926;28;20194;-66
2021/10/02 05:23:10;;;;;;;8.70;3.80;;;;;;;14.90;61.45;97939.13;8445902;28;20218;-65
2021/10/02 05:27:13;;;;;;;6.07;4.23;;;;;;;14.66;62.73;97929.28;8449943;28;20191;-66
2021/10/02 05:31:17;;;;;;;4.60;4.00;;;;;;;14.82;61.89;97934.38;8454561;28;20490;-66
2021/10/02 05:35:21;;;;;;;5.53;3.70;;;;;;;14.77;62.08;97936.44;8454367;28;20218;-65
2021/10/02 05:39:24;;;;;;;8.03;4.40;;;;;;;14.76;62.33;97929.56;8454496;28;20202;-67
2021/10/02 05:43:27;;;;;;;6.47;3.70;;;;;;;14.71;62.21;97934.19;8454282;28;20414;-66
2021/10/02 05:47:33;;;;;;;5.60;3.60;;;;;;;14.70;62.63;97933.38;8453570;28;20198;-66
2021/10/02 05:51:37;;;;;;;5.87;3.80;;;;;;;14.18;64.75;97944.28;8453944;28;20206;-66
2021/10/02 05:55:40;;;;;;;5.43;3.53;;;;;;;14.36;64.28;97937.16;8453918;28;20198;-66
2021/10/02 05:59:45;;;;;;;6.80;3.80;;;;;;;14.12;64.99;97942.88;8453855;28;20240;-66
2021/10/02 06:03:49;;;;;;;7.83;4.00;;;;;;;14.37;64.62;97937.03;8453850;28;20226;-66
2021/10/02 06:07:54;;;;;;;6.73;4.37;;;;;;;14.33;64.70;97935.56;8453278;28;20194;-65
2021/10/02 06:11:57;;;;;;;7.03;4.10;;;;;;;14.64;63.52;97934.59;8453053;28;20508;-66
2021/10/02 06:16:00;;;;;;;4.00;3.60;;;;;;;14.61;63.70;97945.19;8450305;28;20191;-66
2021/10/02 06:20:04;;;;;;;7.77;3.87;;;;;;;14.80;62.90;97944.06;8452508;28;20497;-66
2021/10/02 06:24:08;;;;;;;7.67;3.83;;;;;;;14.32;64.47;97941.72;8452999;28;20201;-65
2021/10/02 06:28:11;;;;;;;4.87;4.00;;;;;;;14.36;65.10;97942.38;8453276;28;20198;-65
2021/10/02 06:32:14;;;;;;;6.83;3.93;;;;;;;14.14;65.40;97937.59;8452249;28;20302;-66
2021/10/02 06:36:17;;;;;;;6.13;3.73;;;;;;;14.68;63.81;97942.19;8451678;28;20194;-65
2021/10/02 06:40:21;;;;;;;6.43;3.83;;;;;;;14.90;63.02;97945.16;8451671;28;20277;-65
2021/10/02 06:44:24;;;;;;;6.77;4.10;;;;;;;14.93;63.32;97941.53;8452358;28;20202;-66
2021/10/02 06:48:29;;;;;;;5.53;3.57;;;;;;;15.05;62.75;97933.75;8451372;28;20205;-66
2021/10/02 06:52:32;;;;;;;7.13;4.00;;;;;;;15.00;63.43;97941.06;8451119;28;20198;-65
2021/10/02 06:56:36;;;;;;;7.47;4.13;;;;;;;15.48;62.19;97917.16;8450890;28;20234;-66
2021/10/02 07:00:39;;;;;;;5.53;4.10;;;;;;;15.86;60.84;97926.88;8450716;28;20237;-65
2021/10/02 07:04:45;;;;;;;4.60;4.10;;;;;;;16.11;61.07;97927.84;8450603;28;20599;-66
2021/10/02 07:08:47;;;;;;;4.83;4.00;;;;;;;16.35;59.78;97936.59;8448562;28;20194;-66
2021/10/02 07:12:54;;;;;;;8.00;4.20;;;;;;;16.66;59.44;97941.50;8450765;28;20494;-65
2021/10/02 07:16:56;;;;;;;7.10;4.00;;;;;;;16.91;58.34;97936.28;8451604;28;20486;-66
2021/10/02 07:20:59;;;;;;;5.67;4.30;;;;;;;16.86;58.25;97938.38;8451349;28;20226;-65
2021/10/02 07:25:02;;;;;;;8.43;4.30;;;;;;;16.66;58.86;97928.44;8451156;28;20505;-66
2021/10/02 07:29:07;;;;;;;10.87;4.30;;;;;;;16.73;59.51;97927.06;8450940;28;20489;-66
2021/10/02 07:33:10;;;;;;;6.97;4.30;;;;;;;16.79;59.46;97937.94;8450827;28;20256;-65
2021/10/02 07:37:12;;;;;;;6.37;4.60;;;;;;;17.08;58.84;97949.94;8450941;28;20380;-65
2021/10/02 07:41:17;;;;;;;10.23;4.67;;;;;;;17.38;58.50;97946.88;8450602;28;20225;-66
2021/10/02 07:45:23;;;;;;;5.70;4.33;;;;;;;17.61;57.84;97942.63;8450666;28;20220;-66
2021/10/02 07:49:27;;;;;;;6.23;4.77;;;;;;;17.82;57.17;97949.81;8450268;28;20482;-66
2021/10/02 07:53:32;;;;;;;5.73;4.50;;;;;;;17.88;57.41;97952.03;8450436;28;20247;-65
2021/10/02 07:57:36;;;;;;;7.77;4.47;;;;;;;17.77;57.17;97947.53;8450017;28;20546;-65
2021/10/02 08:01:40;;;;;;;8.43;4.50;;;;;;;17.62;57.44;97936.41;8450122;28;20233;-65
2021/10/02 08:05:45;;;;;;;8.03;5.30;;;;;;;17.44;57.97;97942.97;8450101;28;20198;-65
2021/10/02 08:09:48;;;;;;;7.83;4.67;;;;;;;17.51;57.61;97946.84;8450017;28;20208;-65
2021/10/02 08:13:52;;;;;;;7.83;5.70;;;;;;;17.53;58.16;97939.69;8449924;28;20212;-65
2021/10/02 08:17:57;;;;;;;10.33;5.30;;;;;;;18.24;55.79;97937.94;8449819;28;20210;-65
2021/10/02 08:22:01;;;;;;;6.57;4.50;;;;;;;19.03;53.77;97937.13;8449637;28;20232;-65
2021/10/02 08:26:04;;;;;;;8.13;4.33;;;;;;;19.76;52.35;97927.72;8449658;28;20220;-65
2021/10/02 08:30:09;;;;;;;8.33;4.93;;;;;;;19.90;51.46;97926.59;8449512;28;20203;-65
2021/10/02 08:34:14;;;;;;;5.67;3.87;;;;;;;19.74;50.24;97927.00;8449407;28;20225;-65
2021/10/02 08:38:17;;;;;;;7.17;4.70;;;;;;;20.04;50.42;97936.78;8449382;28;20199;-65
2021/10/02 08:42:21;;;;;;;7.27;4.30;;;;;;;20.25;48.40;97944.66;8449201;28;20398;-65
2021/10/02 08:46:24;;;;;;;6.47;4.27;;;;;;;20.51;47.68;97942.44;8449368;28;20198;-65
2021/10/02 08:50:29;;;;;;;7.67;4.90;;;;;;;20.76;48.18;97943.00;8449501;28;20518;-65
2021/10/02 08:54:35;;;;;;;8.07;5.00;;;;;;;20.98;47.68;97933.22;8448684;28;20206;-66
2021/10/02 08:58:38;;;;;;;7.27;4.60;;;;;;;21.02;47.02;97926.75;8448172;28;20552;-66
2021/10/02 09:02:41;;;;;;;8.43;4.20;;;;;;;22.13;43.81;97919.44;8452580;28;20291;-65
2021/10/02 09:06:46;;;;;;;7.97;4.60;;;;;;;22.37;43.37;97913.69;8455901;28;20198;-65
2021/10/02 09:10:49;;;;;;;5.90;4.40;;;;;;;22.61;43.08;97910.56;8455777;28;20361;-65
2021/10/02 09:14:53;;;;;;;6.73;4.80;;;;;;;22.62;42.75;97923.63;8455634;28;20203;-65
2021/10/02 09:18:57;;;;;;;6.63;4.67;;;;;;;22.81;42.67;97919.25;8455263;28;20201;-65
2021/10/02 09:23:03;;;;;;;8.03;4.90;;;;;;;22.89;42.55;97911.41;8455019;28;20241;-66
2021/10/02 09:27:15;;;;;;;8.87;4.70;;;;;;;23.08;40.98;97910.50;8455358;28;20209;-66
2021/10/02 09:31:19;;;;;;;8.07;4.87;;;;;;;23.11;41.70;97904.06;8454930;28;20221;-64
2021/10/02 09:35:22;;;;;;;9.60;4.37;;;;;;;23.41;40.37;97889.69;8454479;28;20222;-65
2021/10/02 09:44:03;;;;;;;6.73;4.10;;;;;;;23.23;40.37;97890.50;8467520;27;1334981;-64
2021/10/02 09:48:07;;;;;;;7.40;5.17;;;;;;;23.32;40.96;97872.09;8478682;28;20200;-65
2021/10/02 09:52:27;;;;;;;5.07;4.30;;;;;;;23.04;39.41;97880.09;8478698;28;20501;-65
2021/10/02 09:56:29;;;;;;;7.47;4.50;;;;;;;23.44;39.56;97868.25;8476030;28;20220;-65
2021/10/02 10:00:36;;;;;;;5.50;3.90;;;;;;;23.62;39.83;97861.13;8478627;28;20229;-65
2021/10/02 10:04:39;;;;;;;6.23;3.93;;;;;;;23.85;38.88;97862.47;8478548;28;20258;-65
2021/10/02 10:08:45;;;;;;;6.17;3.90;;;;;;;23.93;37.26;97866.03;8478190;28;20198;-65
2021/10/02 10:12:48;;;;;;;8.27;3.70;;;;;;;24.18;37.85;97858.25;8477133;28;20198;-64
2021/10/02 10:16:53;;;;;;;7.53;4.40;;;;;;;23.52;37.38;97849.81;8476731;28;20216;-64
2021/10/02 10:20:57;;;;;;;4.10;3.27;;;;;;;24.16;37.52;97839.03;8477021;28;20222;-65
2021/10/02 10:25:05;;;;;;;5.03;3.47;;;;;;;23.80;37.35;97839.16;8477510;28;20204;-64
2021/10/02 10:29:08;;;;;;;6.40;3.70;;;;;;;23.90;36.78;97834.59;8477654;28;20206;-64
2021/10/02 10:33:12;;;;;;;6.07;3.20;;;;;;;24.26;36.82;97828.34;8469087;28;20218;-65
2021/10/02 10:37:15;;;;;;;7.17;3.20;;;;;;;24.22;36.70;97819.91;8443398;28;20228;-64
2021/10/02 10:41:21;;;;;;;5.83;3.20;;;;;;;24.07;36.25;97814.38;8442417;28;20245;-65
2021/10/02 10:45:25;;;;;;;5.20;3.00;;;;;;;24.18;35.73;97805.34;8443413;28;20198;-65
2021/10/02 10:49:30;;;;;;;5.23;3.37;;;;;;;23.80;35.85;97802.97;8443134;28;20203;-65
2021/10/02 10:53:36;;;;;;;4.47;2.97;;;;;;;23.87;35.38;97800.53;8430200;28;20391;-65
2021/10/02 10:57:42;;;;;;;4.57;2.90;;;;;;;24.06;35.55;97788.06;8420277;28;20200;-65
2021/10/02 11:01:45;;;;;;;11.03;2.93;;;;;;;23.83;35.56;97771.91;8420244;28;20238;-65
2021/10/02 11:05:52;;;;;;;4.93;2.77;;;;;;;24.22;35.24;97772.28;8420037;28;20438;-65
2021/10/02 11:09:55;;;;;;;8.40;3.20;;;;;;;23.38;36.60;97774.56;8420249;28;20206;-65
2021/10/02 11:13:58;;;;;;;4.03;2.60;;;;;;;24.07;36.78;97758.00;8420142;28;20210;-65
2021/10/02 11:18:01;;;;;;;8.40;3.40;;;;;;;23.57;36.52;97754.19;8420041;28;20205;-65
2021/10/02 11:23:03;;;;;;;4.87;3.20;;;;;;;23.88;36.66;97757.25;8419897;28;20227;-65
2021/10/02 11:27:06;;;;;;;5.27;3.03;;;;;;;24.28;36.54;97750.47;8419752;28;20211;-65
2021/10/02 11:31:13;;;;;;;4.30;2.90;;;;;;;24.47;36.58;97751.19;8419178;28;20206;-65
2021/10/02 11:35:22;;;;;;;4.43;2.97;;;;;;;24.43;36.14;97744.53;8419277;28;20223;-66
2021/10/02 11:39:33;;;;;;;8.57;3.23;;;;;;;24.20;35.71;97731.94;8419242;28;20206;-66
2021/10/02 11:43:36;;;;;;;6.33;2.80;;;;;;;24.18;36.57;97720.69;8418924;28;20233;-66
2021/10/02 11:47:39;;;;;;;8.10;3.40;;;;;;;23.77;38.23;97726.56;8418873;28;20207;-65
2021/10/02 11:51:42;;;;;;;8.33;3.20;;;;;;;23.47;38.22;97717.31;8418964;28;20209;-65
2021/10/02 11:55:50;;;;;;;8.70;3.07;;;;;;;23.38;36.76;97700.59;8418725;28;20199;-66
2021/10/02 11:59:53;;;;;;;2.93;2.50;;;;;;;23.76;35.32;97690.56;8418816;28;20392;-65
2021/10/02 12:04:02;;;;;;;5.47;2.77;;;;;;;23.94;33.94;97693.13;8417314;28;20234;-65
2021/10/02 12:08:07;;;;;;;3.63;2.63;;;;;;;24.18;34.03;97681.00;8417929;28;20211;-65
2021/10/02 12:12:12;;;;;;;5.73;2.77;;;;;;;24.13;34.15;97683.28;8418334;28;20207;-65
2021/10/02 12:16:17;;;;;;;3.30;2.57;;;;;;;24.53;34.79;97677.28;8418156;28;20221;-65
2021/10/02 12:20:20;;;;;;;3.83;2.83;;;;;;;24.36;36.45;97679.03;8417876;28;20431;-65
2021/10/02 12:24:24;;;;;;;6.17;3.37;;;;;;;23.74;39.47;97665.25;8417697;28;20573;-65
2021/10/02 12:28:28;;;;;;;5.87;2.80;;;;;;;23.86;37.75;97665.84;8417704;28;20203;-66
2021/10/02 12:32:31;;;;;;;4.40;2.90;;;;;;;24.28;37.86;97655.22;8417243;28;20208;-65
2021/10/02 12:36:41;;;;;;;5.70;3.20;;;;;;;24.12;36.26;97665.75;8417443;28;20211;-65
2021/10/02 12:40:52;;;;;;;6.80;3.13;;;;;;;24.42;36.72;97650.28;8417245;28;20295;-65
2021/10/02 12:44:56;;;;;;;4.63;3.50;;;;;;;24.54;36.32;97649.84;8417021;28;20199;-65
2021/10/02 12:48:59;;;;;;;4.97;3.20;;;;;;;24.48;35.76;97641.69;8417153;28;20199;-65
2021/10/02 12:53:03;;;;;;;4.17;2.90;;;;;;;24.31;34.59;97644.31;8416912;28;20200;-65
2021/10/02 12:57:10;;;;;;;5.50;2.90;;;;;;;24.79;34.41;97626.00;8416528;28;20230;-67
2021/10/02 13:01:15;;;;;;;6.00;2.80;;;;;;;24.08;32.95;97632.69;8416503;28;20191;-63
2021/10/02 13:05:25;;;;;;;7.17;2.97;;;;;;;24.03;35.48;97624.41;8416940;28;20479;-63
2021/10/02 13:09:28;;;;;;;5.50;3.13;;;;;;;23.57;33.96;97627.34;8415937;28;20202;-63
2021/10/02 13:13:31;;;;;;;5.33;2.77;;;;;;;24.30;34.34;97608.25;8416205;28;20207;-63
2021/10/02 13:17:35;;;;;;;4.00;3.10;;;;;;;23.88;33.89;97601.22;8416058;28;20589;-63
2021/10/02 13:21:38;;;;;;;6.17;2.87;;;;;;;23.94;33.44;97597.13;8416103;28;20228;-63
2021/10/02 13:25:43;;;;;;;3.87;2.90;;;;;;;24.16;33.61;97591.22;8416175;28;20200;-63
2021/10/02 13:29:46;;;;;;;5.47;3.20;;;;;;;24.36;33.26;97582.97;8415867;28;20203;-63
2021/10/02 13:33:53;;;;;;;4.20;3.10;;;;;;;24.06;33.49;97587.06;8415101;28;20223;-63
2021/10/02 13:37:56;;;;;;;6.47;2.77;;;;;;;24.74;33.68;97592.06;8415438;28;20416;-63
2021/10/02 13:42:10;;;;;;;5.73;3.10;;;;;;;24.79;33.41;97588.94;8415173;28;20223;-65
2021/10/02 13:46:15;;;;;;;9.47;3.13;;;;;;;24.45;32.68;97586.44;8415421;28;20195;-64
2021/10/02 13:50:25;;;;;;;4.53;3.00;;;;;;;24.97;32.65;97581.63;8415704;28;20207;-64
2021/10/02 13:54:28;;;;;;;3.97;3.03;;;;;;;24.76;32.62;97591.91;8415703;28;20200;-64
2021/10/02 13:58:31;;;;;;;4.70;2.90;;;;;;;24.79;33.09;97573.06;8413754;28;20196;-64
2021/10/02 14:02:34;;;;;;;5.70;3.33;;;;;;;24.61;33.85;97575.06;8413100;28;20413;-65
2021/10/02 14:06:39;;;;;;;7.47;3.20;;;;;;;24.47;34.20;97572.06;8413630;28;20191;-63
2021/10/02 14:10:42;;;;;;;12.87;3.60;;;;;;;24.50;34.18;97570.88;8412639;28;20200;-64
2021/10/02 14:14:45;;;;;;;8.43;3.20;;;;;;;24.39;33.97;97578.16;8413397;28;20201;-63
2021/10/02 14:18:48;;;;;;;6.40;2.83;;;;;;;24.48;34.71;97571.03;8413437;28;20200;-64
2021/10/02 14:22:52;;;;;;;5.97;3.57;;;;;;;23.41;36.91;97573.44;8413336;28;20216;-64
2021/10/02 14:26:55;;;;;;;5.23;3.20;;;;;;;23.84;36.28;97568.19;8412127;28;20282;-64
2021/10/02 14:30:58;;;;;;;4.83;3.17;;;;;;;23.98;36.74;97553.50;8419366;28;20194;-64
2021/10/02 14:35:01;;;;;;;5.53;3.60;;;;;;;23.74;37.51;97548.94;8419501;28;20227;-64
2021/10/02 14:39:06;;;;;;;5.13;3.67;;;;;;;24.01;37.03;97553.19;8419199;28;20191;-64
2021/10/02 14:43:09;;;;;;;5.90;3.93;;;;;;;23.85;37.20;97540.72;8419415;28;20250;-65
2021/10/02 14:47:12;;;;;;;5.20;3.60;;;;;;;23.72;38.38;97537.69;8420087;28;20203;-65
2021/10/02 14:51:16;;;;;;;7.43;3.93;;;;;;;23.29;38.82;97529.81;8419867;28;20232;-65
2021/10/02 14:55:20;;;;;;;8.03;3.90;;;;;;;23.06;39.65;97515.53;8420518;28;20211;-65
2021/10/02 14:59:24;;;;;;;6.10;3.93;;;;;;;23.01;39.75;97515.94;8420617;28;20202;-65
2021/10/02 15:03:27;;;;;;;9.43;3.97;;;;;;;22.70;40.58;97513.78;8420263;28;20230;-65
2021/10/02 15:07:31;;;;;;;6.47;3.70;;;;;;;22.77;40.66;97504.28;8420350;28;20272;-65
2021/10/02 15:11:35;;;;;;;4.63;3.50;;;;;;;22.82;40.75;97503.78;8420426;28;20397;-65
2021/10/02 15:15:39;;;;;;;7.20;3.80;;;;;;;22.75;41.05;97503.59;8420147;28;20203;-65
2021/10/02 15:19:42;;;;;;;5.43;4.17;;;;;;;22.57;41.39;97495.72;8419851;28;20230;-65
2021/10/02 15:23:48;;;;;;;8.13;4.60;;;;;;;22.56;41.79;97486.19;8419996;28;20240;-65
2021/10/02 15:27:58;;;;;;;5.60;4.17;;;;;;;22.57;42.16;97484.34;8420066;28;20206;-60
2021/10/02 15:32:05;;;;;;;7.27;4.43;;;;;;;22.47;42.94;97475.72;8419369;28;20224;-60
2021/10/02 15:36:08;;;;;;;4.40;4.00;;;;;;;22.34;43.04;97471.69;8419478;28;20560;-59
2021/10/02 15:40:15;;;;;;;7.60;4.60;;;;;;;22.43;43.22;97465.47;8419419;28;20199;-59
2021/10/02 15:44:20;;;;;;;7.53;4.30;;;;;;;22.33;43.62;97458.63;8419187;28;20230;-59
2021/10/02 15:48:23;;;;;;;6.80;4.53;;;;;;;22.20;44.17;97451.94;8419264;28;20191;-60
2021/10/02 15:52:26;;;;;;;6.23;4.30;;;;;;;22.11;44.06;97455.50;8418968;28;20513;-59
2021/10/02 15:56:29;;;;;;;7.13;4.27;;;;;;;22.03;44.18;97455.44;8418503;28;20206;-60
2021/10/02 16:00:36;;;;;;;6.83;4.70;;;;;;;21.90;44.69;97455.81;8418771;28;20203;-60
2021/10/02 16:04:47;;;;;;;4.80;4.00;;;;;;;21.94;44.40;97443.16;8418575;28;20297;-60
2021/10/02 16:08:55;;;;;;;5.50;4.30;;;;;;;21.80;44.99;97437.44;8418409;28;20205;-60
2021/10/02 16:13:01;;;;;;;5.30;4.60;;;;;;;21.45;46.64;97433.00;8418194;28;20381;-60
2021/10/02 16:17:07;;;;;;;8.27;5.47;;;;;;;21.48;46.82;97430.91;8418045;28;20202;-60
2021/10/02 16:21:10;;;;;;;7.83;4.83;;;;;;;21.38;47.74;97424.84;8417513;28;20195;-59
2021/10/02 16:25:13;;;;;;;7.67;5.20;;;;;;;21.39;47.17;97415.13;8417329;28;20230;-59
2021/10/02 16:29:16;;;;;;;6.80;5.10;;;;;;;21.26;47.63;97416.31;8417622;28;20206;-60
2021/10/02 16:33:20;;;;;;;8.87;4.60;;;;;;;21.24;48.02;97417.44;8417116;28;20219;-60
2021/10/02 16:37:23;;;;;;;6.97;4.73;;;;;;;21.06;48.51;97409.53;8416547;28;20516;-63
2021/10/02 16:41:28;;;;;;;9.30;4.93;;;;;;;21.17;48.04;97406.69;8416911;28;20248;-64
2021/10/02 16:45:32;;;;;;;7.23;5.20;;;;;;;21.11;48.53;97403.81;8415792;28;20223;-63
2021/10/02 16:49:36;;;;;;;10.57;5.30;;;;;;;21.01;48.60;97402.06;8416416;28;20196;-63
2021/10/02 16:53:39;;;;;;;7.10;5.07;;;;;;;20.86;49.02;97404.34;8416657;28;20204;-62
2021/10/02 16:57:43;;;;;;;9.43;7.30;;;;;;;20.78;49.72;97409.53;8416617;28;20604;-62
2021/10/02 17:01:46;;;;;;;6.23;5.10;;;;;;;20.76;49.59;97413.28;8415378;28;20201;-62
2021/10/02 17:05:51;;;;;;;8.70;5.17;;;;;;;20.68;49.61;97406.94;8416326;28;20251;-62
2021/10/02 17:09:56;;;;;;;8.53;5.57;;;;;;;20.70;49.73;97401.53;8416141;28;20214;-60
2021/10/02 17:13:59;;;;;;;8.93;5.53;;;;;;;20.73;50.08;97403.88;8416568;28;20209;-61
2021/10/02 17:18:02;;;;;;;6.10;5.03;;;;;;;20.62;50.36;97399.63;8416242;28;20190;-62
2021/10/02 17:22:06;;;;;;;7.33;5.53;;;;;;;20.33;51.08;97390.97;8416278;28;20199;-62
2021/10/02 17:26:09;;;;;;;8.80;5.60;;;;;;;20.35;51.41;97399.56;8416109;28;20229;-62
2021/10/02 17:30:14;;;;;;;10.67;6.10;;;;;;;20.46;51.10;97388.84;8416151;28;20373;-62
2021/10/02 17:34:17;;;;;;;10.67;6.27;;;;;;;20.42;51.16;97396.22;8416294;28;20308;-62
2021/10/02 17:38:21;;;;;;;8.43;5.93;;;;;;;20.28;51.71;97389.63;8416100;28;20208;-64
2021/10/02 17:42:25;;;;;;;8.73;6.27;;;;;;;20.19;52.29;97397.53;8416196;28;20244;-63
2021/10/02 17:46:27;;;;;;;9.20;6.37;;;;;;;20.10;52.57;97392.16;8415770;28;20231;-63
2021/10/02 17:50:31;;;;;;;10.77;6.77;;;;;;;19.94;53.75;97378.78;8415932;28;20272;-63
2021/10/02 17:54:38;;;;;;;7.87;6.40;;;;;;;19.86;53.82;97370.78;8415423;28;20206;-63
2021/10/02 17:58:41;;;;;;;11.23;6.50;;;;;;;19.85;53.93;97363.84;8415918;28;20495;-64
2021/10/02 18:02:45;;;;;;;10.47;6.93;;;;;;;19.51;55.32;97364.25;8416036;28;20197;-63
2021/10/02 18:06:48;;;;;;;10.47;6.97;;;;;;;19.71;55.08;97354.59;8421787;28;20224;-63
2021/10/02 18:10:52;;;;;;;9.93;7.17;;;;;;;19.60;55.29;97358.19;8421788;28;20204;-63
2021/10/02 18:14:55;;;;;;;15.70;7.37;;;;;;;19.65;55.46;97368.28;8421925;28;20210;-63
2021/10/02 18:18:58;;;;;;;10.20;7.57;;;;;;;19.67;55.37;97345.34;8421596;28;20192;-63
2021/10/02 18:23:03;;;;;;;8.27;7.13;;;;;;;19.63;55.94;97347.41;8421564;28;20376;-63
2021/10/02 18:27:11;;;;;;;10.87;7.07;;;;;;;19.79;55.21;97344.22;8421603;28;20198;-64
2021/10/02 18:31:14;;;;;;;8.77;7.30;;;;;;;19.48;56.76;97335.66;8421418;28;20267;-69
2021/10/02 18:35:17;;;;;;;9.30;6.60;;;;;;;19.41;57.32;97324.88;8420961;28;20291;-69
2021/10/02 18:39:20;;;;;;;9.33;6.90;;;;;;;19.50;57.11;97345.06;8421068;28;20208;-69
2021/10/02 18:43:24;;;;;;;8.47;6.33;;;;;;;19.61;56.50;97349.34;8420748;28;20240;-69
2021/10/02 18:47:27;;;;;;;9.40;6.77;;;;;;;19.36;57.70;97348.09;8420102;28;20401;-69
2021/10/02 18:51:31;;;;;;;8.77;6.60;;;;;;;19.54;56.95;97348.25;8420653;28;20199;-69
2021/10/02 18:55:34;;;;;;;9.63;7.27;;;;;;;19.37;57.41;97343.69;8420169;28;20197;-70
2021/10/02 18:59:38;;;;;;;8.90;6.80;;;;;;;19.42;57.54;97347.56;8420242;28;20210;-72
2021/10/02 19:03:43;;;;;;;9.90;6.70;;;;;;;19.31;57.63;97342.44;8417056;28;20234;-70
2021/10/02 19:07:46;;;;;;;10.83;7.13;;;;;;;19.32;57.61;97339.69;8419429;28;20196;-70
2021/10/02 19:11:51;;;;;;;11.13;7.07;;;;;;;19.22;58.14;97328.34;8416836;28;20199;-69
2021/10/02 19:15:55;;;;;;;10.10;6.47;;;;;;;19.12;58.30;97325.72;8418843;28;20222;-69
2021/10/02 19:19:58;;;;;;;6.77;6.07;;;;;;;19.10;58.35;97322.41;8419223;28;20207;-69
2021/10/02 19:24:01;;;;;;;6.87;6.17;;;;;;;19.09;58.32;97322.53;8418952;28;20215;-69
2021/10/02 19:28:04;;;;;;;8.87;6.43;;;;;;;19.11;57.87;97318.81;8418846;28;20199;-69
2021/10/02 19:32:09;;;;;;;7.77;5.97;;;;;;;19.16;58.00;97322.81;8418651;28;20191;-69
2021/10/02 19:36:12;;;;;;;8.10;6.40;;;;;;;18.97;58.25;97328.88;8416227;28;20215;-70
2021/10/02 19:40:15;;;;;;;8.20;6.20;;;;;;;19.10;57.57;97327.66;8418466;28;20195;-70
2021/10/02 19:44:18;;;;;;;6.93;6.10;;;;;;;19.09;58.35;97331.22;8418315;28;20214;-71
2021/10/02 19:48:23;;;;;;;7.15;6.45;;;;;;;19.23;57.14;97324.75;8417812;28;20690;-70
2021/10/02 19:52:26;;;;;;;9.70;6.20;;;;;;;19.04;57.73;97322.94;8418018;28;20394;-70
2021/10/02 19:56:29;;;;;;;9.70;6.23;;;;;;;18.78;58.87;97313.91;8412437;28;20503;-71
2021/10/02 20:00:31;;;;;;;7.90;5.70;;;;;;;18.82;58.75;97310.91;8415389;28;20192;-72
2021/10/02 20:04:39;;;;;;;7.23;5.63;;;;;;;18.68;58.73;97311.28;8417580;28;20258;-70